Time;durP1;ratioP1;P1;durP2;ratioP2;P2;SDS_P1;SDS_P2;PMS_P1;PMS_P2;Temp;Humidity;BMP_temperature;BMP_pressure;BME280_temperature;BME280_humidity;BME280_pressure;Samples;Min_cycle;Max_cycle;Signal;HPM_P1;HPM_P2
2022/01/30 00:01:46;;;;;;;16.42;2.65;;;;;;;3.89;100.00;97224.34;5059647;28;20040;-71
2022/01/30 00:04:12;;;;;;;12.10;2.53;;;;;;;3.89;100.00;97210.25;5060270;28;20045;-71
2022/01/30 00:06:37;;;;;;;3.90;1.88;;;;;;;3.92;100.00;97218.66;5058720;28;20506;-70
2022/01/30 00:09:05;;;;;;;15.60;2.75;;;;;;;3.90;100.00;97219.84;5061137;28;20041;-71
2022/01/30 00:11:35;;;;;;;10.68;1.92;;;;;;;3.87;100.00;97214.91;5062140;28;20036;-69
2022/01/30 00:14:02;;;;;;;8.60;2.05;;;;;;;3.82;100.00;97202.25;5061490;28;20076;-71
2022/01/30 00:16:32;;;;;;;12.20;2.40;;;;;;;3.85;100.00;97206.34;5059809;28;20036;-71
2022/01/30 00:19:09;;;;;;;12.55;2.47;;;;;;;3.80;100.00;97201.59;5061544;28;20241;-72
2022/01/30 00:21:40;;;;;;;8.57;2.53;;;;;;;3.77;100.00;97198.53;5059449;28;20040;-71
2022/01/30 00:24:12;;;;;;;15.77;1.95;;;;;;;3.79;100.00;97207.09;5060208;28;20060;-70
2022/01/30 00:26:40;;;;;;;17.60;2.88;;;;;;;3.78;100.00;97214.22;5057634;28;20040;-72
2022/01/30 00:29:06;;;;;;;6.20;1.70;;;;;;;3.78;100.00;97216.03;5058962;28;20416;-71
2022/01/30 00:31:33;;;;;;;19.48;2.95;;;;;;;3.77;100.00;97225.00;5047920;28;20245;-71
2022/01/30 00:33:59;;;;;;;9.38;3.47;;;;;;;3.75;100.00;97208.50;5056041;28;20036;-71
2022/01/30 00:36:26;;;;;;;6.53;2.38;;;;;;;3.73;100.00;97207.84;5044805;28;20087;-70
2022/01/30 00:38:52;;;;;;;15.68;3.10;;;;;;;3.73;100.00;97218.41;5042494;28;20424;-71
2022/01/30 00:41:18;;;;;;;10.63;2.83;;;;;;;3.71;100.00;97221.25;5040201;28;20036;-72
2022/01/30 00:43:44;;;;;;;25.75;3.35;;;;;;;3.73;100.00;97213.13;5040659;28;20102;-70
2022/01/30 00:46:21;;;;;;;4.70;1.90;;;;;;;3.71;100.00;97217.78;1700523;28;10022573;-70
2022/01/30 00:48:46;;;;;;;6.93;2.53;;;;;;;3.69;100.00;97218.00;3995587;28;10001117;-70
2022/01/30 00:51:14;;;;;;;15.25;3.15;;;;;;;3.67;100.00;97224.50;5030679;28;20045;-72
2022/01/30 00:53:40;;;;;;;17.83;4.15;;;;;;;3.66;100.00;97228.13;5039849;28;20045;-72
2022/01/30 00:56:07;;;;;;;9.50;1.83;;;;;;;3.63;100.00;97224.03;5050985;28;20106;-70
2022/01/30 00:58:33;;;;;;;20.50;4.30;;;;;;;3.60;100.00;97217.28;5038205;28;20040;-69
2022/01/30 01:00:59;;;;;;;20.02;3.72;;;;;;;3.59;100.00;97228.06;5034561;28;20033;-69
2022/01/30 01:03:25;;;;;;;17.05;3.10;;;;;;;3.58;100.00;97221.09;5035385;28;20713;-71
2022/01/30 01:05:52;;;;;;;10.55;2.83;;;;;;;3.57;100.00;97207.06;5049303;28;20036;-71
2022/01/30 01:08:28;;;;;;;12.52;3.42;;;;;;;3.54;100.00;97214.56;5051607;28;20075;-69
2022/01/30 01:11:01;;;;;;;5.93;1.98;;;;;;;3.50;100.00;97218.56;5053218;28;20048;-69
2022/01/30 01:24:07;;;;;;;14.65;2.88;;;;;;;3.46;100.00;97225.25;5032967;28;20579;-71
2022/01/30 01:26:34;;;;;;;14.38;2.67;;;;;;;3.42;100.00;97227.44;5038061;28;20091;-69
2022/01/30 01:29:00;;;;;;;16.85;3.00;;;;;;;3.39;100.00;97205.81;5069090;28;20041;-70
2022/01/30 01:31:26;;;;;;;13.07;1.83;;;;;;;3.36;100.00;97238.78;5035004;28;20041;-70
2022/01/30 01:36:34;;;;;;;7.82;2.22;;;;;;;3.32;100.00;97235.66;5033076;28;20041;-72
2022/01/30 01:38:59;;;;;;;10.85;3.20;;;;;;;3.28;100.00;97231.75;5033531;28;20368;-69
2022/01/30 01:41:27;;;;;;;21.02;4.57;;;;;;;3.24;100.00;97245.50;5039102;28;20585;-70
2022/01/30 01:43:52;;;;;;;10.18;2.72;;;;;;;3.18;100.00;97231.19;5033797;28;20445;-70
2022/01/30 01:46:24;;;;;;;18.83;2.50;;;;;;;3.19;100.00;97226.72;5031719;28;20048;-70
2022/01/30 01:48:52;;;;;;;12.68;3.20;;;;;;;3.16;100.00;97227.09;5033056;28;20415;-72
2022/01/30 01:51:22;;;;;;;17.63;3.08;;;;;;;3.13;100.00;97236.22;5035732;28;20029;-69
2022/01/30 01:53:49;;;;;;;14.13;2.83;;;;;;;3.10;100.00;97228.63;5028914;28;20056;-70
2022/01/30 01:56:16;;;;;;;11.73;3.58;;;;;;;3.02;100.00;97226.91;5031115;28;20032;-72
2022/01/30 01:58:47;;;;;;;8.43;2.53;;;;;;;3.00;100.00;97238.69;5036192;28;20036;-71
2022/01/30 02:01:31;;;;;;;14.77;4.32;;;;;;;2.96;100.00;97232.13;5033531;28;20254;-71
2022/01/30 02:03:57;;;;;;;9.88;1.67;;;;;;;2.93;100.00;97237.75;5033110;28;20033;-71
2022/01/30 02:06:25;;;;;;;24.88;3.60;;;;;;;2.95;100.00;97235.75;5031041;28;20079;-71
2022/01/30 02:09:07;;;;;;;27.38;3.65;;;;;;;2.88;100.00;97235.66;5048284;28;20044;-70
2022/01/30 02:11:40;;;;;;;13.23;3.17;;;;;;;2.88;100.00;97246.25;5050162;28;20039;-70
2022/01/30 02:27:36;;;;;;;10.40;3.13;;;;;;;2.74;100.00;97224.06;5048144;28;20037;-71
2022/01/30 02:30:19;;;;;;;7.25;2.13;;;;;;;2.58;100.00;97241.91;5051062;28;20459;-71
2022/01/30 02:32:47;;;;;;;11.88;2.53;;;;;;;2.53;100.00;97241.63;5027330;28;20076;-70
2022/01/30 02:35:12;;;;;;;12.98;3.42;;;;;;;2.45;100.00;97240.69;5027214;28;20484;-71
2022/01/30 02:37:38;;;;;;;13.50;3.13;;;;;;;2.44;100.00;97257.53;5012568;28;20119;-70
2022/01/30 02:40:08;;;;;;;8.15;3.05;;;;;;;2.45;100.00;97245.97;5011950;28;20628;-70
2022/01/30 02:42:37;;;;;;;16.52;3.65;;;;;;;2.51;100.00;97260.28;5011903;28;20045;-71
2022/01/30 02:45:08;;;;;;;16.52;2.92;;;;;;;2.58;100.00;97255.94;5010846;28;20046;-69
2022/01/30 02:52:38;;;;;;;18.42;3.45;;;;;;;2.54;100.00;97281.06;5006899;28;20048;-69
2022/01/30 02:55:05;;;;;;;11.05;2.97;;;;;;;2.36;100.00;97267.34;5011731;28;20408;-70
2022/01/30 02:57:31;;;;;;;14.25;3.33;;;;;;;2.19;100.00;97256.91;5008473;28;20042;-70
2022/01/30 02:59:56;;;;;;;15.70;2.60;;;;;;;2.10;100.00;97251.84;5016954;28;20301;-69
2022/01/30 03:02:22;;;;;;;13.68;3.45;;;;;;;2.23;100.00;97260.00;5045574;28;20060;-71
2022/01/30 03:04:47;;;;;;;30.48;3.17;;;;;;;2.30;100.00;97250.38;5036231;28;20132;-69
2022/01/30 03:07:13;;;;;;;13.20;2.05;;;;;;;2.23;100.00;97265.28;5049711;28;20452;-71
2022/01/30 03:09:48;;;;;;;10.63;2.45;;;;;;;2.11;100.00;97246.41;5053727;28;20055;-72
2022/01/30 03:12:13;;;;;;;23.80;4.80;;;;;;;2.11;100.00;97266.72;5041184;28;20033;-71
2022/01/30 03:14:42;;;;;;;20.70;2.50;;;;;;;1.99;100.00;97257.53;5052425;28;20033;-70
2022/01/30 03:17:08;;;;;;;15.93;2.95;;;;;;;2.03;100.00;97272.03;5053527;28;20580;-72
2022/01/30 03:19:34;;;;;;;9.95;2.30;;;;;;;2.02;100.00;97286.22;5051130;28;20033;-69
2022/01/30 03:21:59;;;;;;;14.27;2.83;;;;;;;1.99;100.00;97292.69;5037507;28;20033;-70
2022/01/30 03:24:25;;;;;;;10.77;2.78;;;;;;;1.99;100.00;97282.13;5036708;28;20037;-71
2022/01/30 03:26:53;;;;;;;20.83;3.15;;;;;;;2.02;100.00;97283.56;5048656;28;20524;-71
2022/01/30 03:29:28;;;;;;;15.32;3.05;;;;;;;2.04;100.00;97278.97;5051664;28;20373;-71
2022/01/30 03:31:54;;;;;;;8.77;1.77;;;;;;;2.12;100.00;97292.13;5049734;28;20072;-69
2022/01/30 03:34:19;;;;;;;14.77;3.05;;;;;;;2.13;100.00;97304.31;5028683;28;20092;-72
2022/01/30 03:36:50;;;;;;;18.85;2.70;;;;;;;2.11;100.00;97291.28;5035739;28;20033;-72
2022/01/30 03:39:16;;;;;;;12.18;2.78;;;;;;;2.11;100.00;97290.47;5037142;28;20045;-71
2022/01/30 03:41:42;;;;;;;17.73;2.25;;;;;;;2.07;100.00;97283.88;5050694;28;20042;-72
2022/01/30 03:44:12;;;;;;;20.40;3.85;;;;;;;2.02;100.00;97280.94;5035035;28;20122;-72
2022/01/30 03:46:38;;;;;;;8.55;2.40;;;;;;;1.92;100.00;97292.53;5036104;28;20028;-71
2022/01/30 03:49:03;;;;;;;9.60;3.03;;;;;;;1.88;100.00;97293.91;5033690;28;20124;-69
2022/01/30 03:51:32;;;;;;;18.00;2.55;;;;;;;1.77;100.00;97296.09;5049632;28;20391;-72
2022/01/30 03:54:09;;;;;;;21.20;4.97;;;;;;;1.68;100.00;97303.22;5051637;28;20029;-71
2022/01/30 03:56:35;;;;;;;11.73;2.67;;;;;;;1.58;100.00;97300.00;5052126;28;20434;-70
2022/01/30 03:59:00;;;;;;;17.00;3.22;;;;;;;1.44;100.00;97298.88;5040089;28;20315;-70
2022/01/30 04:01:26;;;;;;;13.27;3.25;;;;;;;1.35;100.00;97306.00;5038899;28;20457;-69
2022/01/30 04:03:51;;;;;;;18.98;3.35;;;;;;;1.32;100.00;97316.06;5040854;28;20264;-71
2022/01/30 04:06:17;;;;;;;10.95;1.83;;;;;;;1.42;100.00;97321.16;5048605;28;20071;-69
2022/01/30 04:08:44;;;;;;;7.15;2.65;;;;;;;1.45;100.00;97302.34;5041089;28;20031;-70
2022/01/30 04:11:18;;;;;;;8.65;2.53;;;;;;;1.35;100.00;97308.63;5032469;28;20044;-72
2022/01/30 04:14:10;;;;;;;19.98;3.50;;;;;;;1.33;100.00;97313.25;5022533;28;20590;-72
2022/01/30 04:16:57;;;;;;;28.13;5.32;;;;;;;1.43;100.00;97312.25;5035981;28;20122;-72
2022/01/30 04:19:44;;;;;;;10.25;2.47;;;;;;;1.54;100.00;97317.97;5038692;28;20306;-70
2022/01/30 04:22:42;;;;;;;26.30;2.78;;;;;;;1.61;100.00;97316.28;5037028;28;20395;-72
2022/01/30 04:25:34;;;;;;;12.77;2.72;;;;;;;1.64;100.00;97328.34;5038098;28;20222;-70
2022/01/30 04:28:26;;;;;;;7.30;2.28;;;;;;;1.63;100.00;97316.09;5019513;28;20514;-71
2022/01/30 04:31:10;;;;;;;22.13;2.72;;;;;;;1.69;100.00;97323.34;5033847;28;20047;-71
2022/01/30 04:33:51;;;;;;;16.90;3.03;;;;;;;1.65;100.00;97316.78;5031604;28;20422;-70
2022/01/30 04:36:43;;;;;;;11.88;3.47;;;;;;;1.62;100.00;97320.56;5045994;28;20486;-71
2022/01/30 05:02:49;;;;;;;16.38;1.85;;;;;;;1.73;100.00;97332.56;5050734;28;20457;-72
2022/01/30 05:08:21;;;;;;;15.38;2.80;;;;;;;1.72;100.00;97333.56;5051524;28;20036;-71
2022/01/30 05:10:58;;;;;;;13.25;2.30;;;;;;;1.75;100.00;97340.31;5034241;28;20115;-71
2022/01/30 05:13:47;;;;;;;13.38;2.47;;;;;;;1.73;100.00;97335.22;5034393;28;20583;-69
2022/01/30 05:16:34;;;;;;;19.13;3.20;;;;;;;1.78;100.00;97342.59;5052825;28;20089;-69
2022/01/30 05:19:07;;;;;;;25.13;3.40;;;;;;;1.75;100.00;97340.31;5050845;28;20415;-71
2022/01/30 05:21:42;;;;;;;8.15;1.83;;;;;;;1.72;100.00;97349.41;5046401;28;20084;-70
2022/01/30 05:24:26;;;;;;;9.95;1.98;;;;;;;1.67;100.00;97344.63;5032533;28;20091;-69
2022/01/30 05:27:05;;;;;;;14.43;2.65;;;;;;;1.67;100.00;97359.63;5066116;28;20036;-70
2022/01/30 05:29:43;;;;;;;10.57;2.50;;;;;;;1.61;100.00;97347.13;5032742;28;20037;-71
2022/01/30 05:32:09;;;;;;;7.72;1.90;;;;;;;1.58;100.00;97363.31;5034253;28;20052;-71
2022/01/30 05:34:44;;;;;;;8.80;1.88;;;;;;;1.55;100.00;97359.16;5035366;28;20040;-71
2022/01/30 05:37:19;;;;;;;10.13;2.15;;;;;;;1.55;100.00;97363.63;5051458;28;20422;-71
2022/01/30 05:40:05;;;;;;;10.93;2.53;;;;;;;1.57;100.00;97373.03;5033202;28;20108;-69
2022/01/30 05:42:52;;;;;;;10.07;3.13;;;;;;;1.58;100.00;97371.22;5050046;28;20076;-71
2022/01/30 05:45:54;;;;;;;26.70;2.47;;;;;;;1.55;100.00;97390.00;5023831;28;20049;-71
2022/01/30 05:48:39;;;;;;;15.80;2.83;;;;;;;1.53;100.00;97390.19;5034375;28;20102;-70
2022/01/30 05:51:40;;;;;;;8.93;2.53;;;;;;;1.42;100.00;97389.72;4986030;28;20045;-70
2022/01/30 05:54:14;;;;;;;17.15;3.60;;;;;;;1.37;100.00;97404.22;5039911;28;20476;-69
2022/01/30 05:56:39;;;;;;;14.35;3.92;;;;;;;1.44;100.00;97400.94;5051342;28;20048;-70
2022/01/30 05:59:14;;;;;;;10.98;2.90;;;;;;;1.46;100.00;97406.84;5046932;28;20041;-72
2022/01/30 06:02:00;;;;;;;3.42;1.48;;;;;;;1.44;100.00;97391.19;5051190;28;20194;-71
2022/01/30 06:04:25;;;;;;;20.67;2.75;;;;;;;1.47;100.00;97411.13;5056451;28;20289;-71
2022/01/30 06:06:53;;;;;;;14.52;3.22;;;;;;;1.46;100.00;97391.03;5053170;28;20479;-71
2022/01/30 06:09:19;;;;;;;10.48;1.90;;;;;;;1.49;100.00;97407.34;5036808;28;20464;-70
2022/01/30 06:11:53;;;;;;;5.63;1.88;;;;;;;1.49;100.00;97406.53;5052780;28;20041;-72
2022/01/30 06:14:24;;;;;;;8.13;1.55;;;;;;;1.46;100.00;97406.84;5053503;28;20032;-72
2022/01/30 06:16:57;;;;;;;21.05;2.72;;;;;;;1.49;100.00;97422.38;5053958;28;20037;-70
2022/01/30 06:19:46;;;;;;;20.40;3.13;;;;;;;1.53;100.00;97413.94;5006526;28;20043;-69
2022/01/30 06:22:41;;;;;;;9.98;4.00;;;;;;;1.54;100.00;97415.56;5033651;28;20041;-70
2022/01/30 06:25:25;;;;;;;17.77;1.83;;;;;;;1.56;100.00;97412.78;5032221;28;20053;-70
2022/01/30 06:28:09;;;;;;;12.10;2.28;;;;;;;1.53;100.00;97424.47;5042271;28;20087;-69
2022/01/30 06:30:50;;;;;;;8.57;3.17;;;;;;;1.53;100.00;97429.75;5060507;28;20036;-71
2022/01/30 06:33:35;;;;;;;18.10;2.85;;;;;;;1.55;100.00;97421.66;5049731;28;20063;-71
2022/01/30 06:36:35;;;;;;;16.98;3.50;;;;;;;1.57;100.00;97420.53;5040956;28;20139;-71
2022/01/30 06:39:17;;;;;;;16.38;3.95;;;;;;;1.54;100.00;97420.03;5040424;28;20041;-72
2022/01/30 06:41:53;;;;;;;12.88;3.20;;;;;;;1.53;100.00;97434.22;5046236;28;20040;-70
2022/01/30 06:44:37;;;;;;;10.57;1.95;;;;;;;1.58;100.00;97432.72;5044407;28;20049;-72
2022/01/30 06:47:21;;;;;;;20.67;4.18;;;;;;;1.55;100.00;97437.50;5052292;28;20458;-71
2022/01/30 06:50:06;;;;;;;9.05;2.72;;;;;;;1.55;100.00;97443.59;5038108;28;20623;-72
2022/01/30 06:52:50;;;;;;;17.13;2.97;;;;;;;1.56;100.00;97434.72;5039827;28;20085;-71
2022/01/30 06:55:39;;;;;;;17.55;2.35;;;;;;;1.53;100.00;97442.94;5017181;28;20140;-73
2022/01/30 06:58:24;;;;;;;20.50;3.92;;;;;;;1.52;100.00;97432.56;5034915;28;20033;-71
2022/01/30 07:01:25;;;;;;;7.72;2.90;;;;;;;1.53;100.00;97440.31;4998262;28;20607;-73
2022/01/30 07:04:26;;;;;;;;;;;;;;;1.53;100.00;97429.75;5015884;28;20033;-72
2022/01/30 07:07:18;;;;;;;9.88;2.60;;;;;;;1.57;100.00;97427.63;5025094;28;20129;-71
2022/01/30 07:09:43;;;;;;;4.13;1.08;;;;;;;1.54;100.00;97425.28;5040361;28;20032;-71
2022/01/30 07:12:10;;;;;;;19.42;3.45;;;;;;;1.52;100.00;97432.56;5033843;28;20052;-71
2022/01/30 07:14:35;;;;;;;18.23;2.58;;;;;;;1.51;100.00;97446.75;5037946;28;20045;-73
2022/01/30 07:17:01;;;;;;;18.55;2.60;;;;;;;1.50;100.00;97440.66;5035700;28;20029;-70
2022/01/30 07:19:26;;;;;;;16.42;2.78;;;;;;;1.53;100.00;97440.31;5036261;28;20172;-72
2022/01/30 07:21:53;;;;;;;12.90;2.35;;;;;;;1.54;100.00;97451.69;5035131;28;20041;-70
2022/01/30 07:24:18;;;;;;;23.40;4.32;;;;;;;1.52;100.00;97432.56;5037217;28;20396;-70
2022/01/30 07:26:44;;;;;;;8.60;2.95;;;;;;;1.47;100.00;97446.25;5031228;28;20037;-70
2022/01/30 07:29:10;;;;;;;19.50;2.67;;;;;;;1.52;100.00;97464.22;5038537;28;20392;-70
2022/01/30 07:31:35;;;;;;;20.95;2.75;;;;;;;1.51;100.00;97467.84;5026101;28;20057;-72
2022/01/30 07:34:02;;;;;;;16.17;2.60;;;;;;;1.51;100.00;97466.03;5031231;28;20048;-71
2022/01/30 07:36:29;;;;;;;25.92;3.45;;;;;;;1.59;100.00;97467.84;5024682;28;20077;-70
2022/01/30 07:38:55;;;;;;;15.70;2.60;;;;;;;1.60;100.00;97461.56;5029634;28;20578;-71
2022/01/30 07:41:22;;;;;;;13.73;2.65;;;;;;;1.58;100.00;97456.47;5029902;28;20238;-70
2022/01/30 07:43:48;;;;;;;14.80;2.65;;;;;;;1.61;100.00;97468.50;5031927;28;20057;-70
2022/01/30 07:46:18;;;;;;;12.93;1.97;;;;;;;1.61;100.00;97476.41;5042371;28;20765;-70
2022/01/30 07:48:43;;;;;;;10.65;2.88;;;;;;;1.57;100.00;97489.13;5030759;28;20040;-71
2022/01/30 07:51:09;;;;;;;11.65;3.45;;;;;;;1.58;100.00;97476.75;5029469;28;20056;-72
2022/01/30 07:53:35;;;;;;;12.52;3.38;;;;;;;1.59;100.00;97496.88;5030499;28;20052;-70
2022/01/30 07:56:01;;;;;;;19.40;3.42;;;;;;;1.55;100.00;97471.78;5029938;28;20545;-71
2022/01/30 07:58:26;;;;;;;9.15;2.67;;;;;;;1.58;100.00;97487.31;5027118;28;20041;-72
2022/01/30 08:00:52;;;;;;;7.60;2.78;;;;;;;1.57;100.00;97483.03;5031172;28;20884;-71
2022/01/30 08:03:17;;;;;;;21.58;2.72;;;;;;;1.62;100.00;97489.44;5036442;28;20469;-71
2022/01/30 08:05:43;;;;;;;23.98;1.85;;;;;;;1.60;100.00;97482.69;5036491;28;20039;-71
2022/01/30 08:08:08;;;;;;;11.40;3.15;;;;;;;1.62;100.00;97480.69;5051923;28;20462;-71
2022/01/30 08:10:34;;;;;;;16.90;3.70;;;;;;;1.60;100.00;97486.13;5051269;28;20043;-70
2022/01/30 08:13:00;;;;;;;16.00;2.70;;;;;;;1.57;100.00;97488.31;5036204;28;20503;-72
2022/01/30 08:15:26;;;;;;;15.73;2.90;;;;;;;1.58;100.00;97489.94;5034386;28;20037;-70
2022/01/30 08:17:51;;;;;;;12.95;1.65;;;;;;;1.61;100.00;97490.41;5035547;28;20503;-71
2022/01/30 08:20:18;;;;;;;22.33;2.00;;;;;;;1.64;100.00;97497.19;5022685;28;20657;-72
2022/01/30 08:22:49;;;;;;;10.90;2.35;;;;;;;1.63;100.00;97493.75;5034380;28;20049;-71
2022/01/30 08:25:18;;;;;;;16.30;2.43;;;;;;;1.74;100.00;97497.84;5035161;28;20048;-70
2022/01/30 08:27:44;;;;;;;14.75;2.42;;;;;;;1.72;100.00;97491.09;4683379;28;9999831;-72
2022/01/30 08:30:11;;;;;;;11.20;1.67;;;;;;;1.70;100.00;97511.53;5025338;28;20563;-72
2022/01/30 08:32:44;;;;;;;8.23;1.67;;;;;;;1.71;100.00;97503.44;5031925;28;20048;-71
2022/01/30 08:35:12;;;;;;;14.40;2.85;;;;;;;1.71;100.00;97495.50;5031931;28;20036;-71
2022/01/30 08:37:38;;;;;;;24.98;2.55;;;;;;;1.80;100.00;97505.09;5030118;28;20037;-72
2022/01/30 08:40:07;;;;;;;12.13;1.73;;;;;;;1.79;100.00;97503.44;5033272;28;20048;-71
2022/01/30 08:42:33;;;;;;;21.50;3.10;;;;;;;1.79;100.00;97505.22;5034136;28;20032;-72
2022/01/30 08:44:58;;;;;;;10.50;2.72;;;;;;;1.87;100.00;97514.00;5035580;28;20342;-72
2022/01/30 08:47:25;;;;;;;9.13;1.67;;;;;;;1.93;100.00;97520.38;5041817;28;20855;-72
2022/01/30 08:49:50;;;;;;;19.75;2.67;;;;;;;1.93;100.00;97520.38;5027903;28;20033;-71
2022/01/30 08:52:19;;;;;;;22.40;3.58;;;;;;;1.92;100.00;97511.66;5031312;28;20071;-71
2022/01/30 08:54:53;;;;;;;35.10;2.33;;;;;;;1.98;100.00;97527.81;5030798;28;20386;-72
2022/01/30 08:57:19;;;;;;;11.15;2.25;;;;;;;1.92;100.00;97527.47;5032060;28;20044;-72
2022/01/30 08:59:45;;;;;;;10.27;2.60;;;;;;;1.92;100.00;97542.50;5032244;28;20406;-73
2022/01/30 09:02:11;;;;;;;10.05;2.10;;;;;;;1.81;100.00;97506.72;5029110;28;20049;-73
2022/01/30 09:04:36;;;;;;;17.67;2.95;;;;;;;1.95;100.00;97513.97;5030692;28;20080;-70
2022/01/30 09:07:02;;;;;;;9.88;2.20;;;;;;;1.97;100.00;97523.53;5029481;28;20099;-71
2022/01/30 09:09:29;;;;;;;16.33;3.33;;;;;;;1.91;100.00;97507.38;5029755;28;20030;-71
2022/01/30 09:11:58;;;;;;;7.68;1.90;;;;;;;1.89;100.00;97497.97;5034147;28;20036;-73
2022/01/30 09:14:27;;;;;;;28.90;2.75;;;;;;;2.00;100.00;97487.03;5030490;28;20045;-71
2022/01/30 09:16:53;;;;;;;20.85;2.55;;;;;;;1.99;100.00;97498.59;5031300;28;20037;-72
2022/01/30 09:19:19;;;;;;;18.83;3.83;;;;;;;1.94;100.00;97493.81;5034761;28;20307;-71
2022/01/30 09:21:44;;;;;;;15.70;1.85;;;;;;;2.01;100.00;97506.34;5031444;28;20048;-71
2022/01/30 09:24:10;;;;;;;12.77;2.45;;;;;;;2.17;100.00;97495.72;5030936;28;20545;-71
2022/01/30 09:26:35;;;;;;;23.55;4.60;;;;;;;2.29;100.00;97490.91;5034157;28;20037;-72
2022/01/30 09:29:01;;;;;;;7.80;1.35;;;;;;;2.16;100.00;97496.72;5030401;28;20029;-70
2022/01/30 09:31:26;;;;;;;9.18;2.78;;;;;;;2.20;100.00;97512.06;5034267;28;20104;-71
2022/01/30 09:33:52;;;;;;;6.53;1.38;;;;;;;2.18;100.00;97508.78;5027241;28;20075;-73
2022/01/30 09:36:18;;;;;;;25.77;3.75;;;;;;;2.13;100.00;97512.94;5028965;28;20053;-73
2022/01/30 09:38:44;;;;;;;13.15;2.33;;;;;;;2.11;100.00;97499.91;5032787;28;20033;-73
2022/01/30 09:41:09;;;;;;;8.98;2.78;;;;;;;2.11;100.00;97502.53;5035403;28;20033;-71
2022/01/30 09:43:35;;;;;;;16.75;3.10;;;;;;;2.27;100.00;97492.91;5033086;28;20067;-72
2022/01/30 09:46:03;;;;;;;25.02;3.15;;;;;;;2.33;100.00;97490.38;5038496;28;20551;-70
2022/01/30 09:48:35;;;;;;;33.42;3.95;;;;;;;2.38;100.00;97497.81;5033809;28;20079;-70
2022/01/30 09:51:03;;;;;;;6.47;1.83;;;;;;;2.38;100.00;97489.88;5035115;28;20036;-71
2022/01/30 09:53:29;;;;;;;16.23;3.03;;;;;;;2.46;100.00;97503.88;5035601;28;20037;-72
2022/01/30 09:55:54;;;;;;;5.88;1.95;;;;;;;2.44;100.00;97497.94;5048397;28;20118;-71
2022/01/30 09:58:19;;;;;;;7.55;1.92;;;;;;;2.64;100.00;97486.94;5031243;28;20461;-73
2022/01/30 10:00:46;;;;;;;11.20;2.40;;;;;;;2.53;100.00;97492.63;5031281;28;20074;-71
2022/01/30 10:03:11;;;;;;;7.43;2.05;;;;;;;2.56;100.00;97495.72;5035021;28;20280;-71
2022/01/30 10:05:38;;;;;;;12.80;2.30;;;;;;;2.63;100.00;97475.56;5038097;28;20046;-73
2022/01/30 10:08:05;;;;;;;25.40;2.53;;;;;;;2.58;100.00;97501.69;5038384;28;20107;-70
2022/01/30 10:10:30;;;;;;;10.07;1.55;;;;;;;2.58;100.00;97511.44;5030893;28;20085;-70
2022/01/30 10:13:14;;;;;;;22.45;3.47;;;;;;;2.51;100.00;97508.66;5037768;28;20029;-71
2022/01/30 10:15:56;;;;;;;8.93;2.42;;;;;;;2.53;100.00;97511.13;5033614;28;20123;-73
2022/01/30 10:18:22;;;;;;;10.38;3.40;;;;;;;2.68;100.00;97515.50;5036329;28;20091;-72
2022/01/30 10:20:48;;;;;;;15.15;3.38;;;;;;;2.59;100.00;97526.31;5035010;28;20044;-71
2022/01/30 10:23:14;;;;;;;20.10;3.42;;;;;;;2.44;100.00;97516.44;5034786;28;20103;-71
2022/01/30 10:25:52;;;;;;;14.30;2.40;;;;;;;2.30;100.00;97542.75;5034370;28;20037;-71
2022/01/30 10:28:28;;;;;;;12.85;2.10;;;;;;;2.43;100.00;97548.31;5047530;28;20181;-72
2022/01/30 10:30:55;;;;;;;37.75;3.60;;;;;;;2.49;100.00;97535.25;5036990;28;20438;-71
2022/01/30 10:33:36;;;;;;;34.88;4.00;;;;;;;2.48;100.00;97530.13;5037164;28;20132;-72
2022/01/30 10:36:03;;;;;;;;;;;;;;;2.40;100.00;97546.00;5036760;28;20037;-72
2022/01/30 10:38:36;;;;;;;17.48;3.38;;;;;;;2.30;100.00;97554.13;5035108;28;19960;-70
2022/01/30 10:41:15;;;;;;;8.45;1.80;;;;;;;2.27;100.00;97554.50;5033774;28;20562;-72
2022/01/30 10:44:06;;;;;;;9.00;2.83;;;;;;;2.25;100.00;97545.88;5048704;28;20529;-73
2022/01/30 10:46:39;;;;;;;17.30;2.60;;;;;;;2.22;100.00;97556.81;5034866;28;20049;-73
2022/01/30 10:49:13;;;;;;;11.43;2.05;;;;;;;2.19;100.00;97562.44;5034398;28;20047;-72
2022/01/30 10:51:39;;;;;;;27.67;3.80;;;;;;;2.24;100.00;97563.56;5034761;28;20515;-70
2022/01/30 10:54:12;;;;;;;25.05;3.38;;;;;;;2.21;100.00;97560.44;5035598;28;20351;-72
2022/01/30 10:56:39;;;;;;;33.83;4.20;;;;;;;2.28;100.00;97566.69;5031712;28;20099;-73
2022/01/30 10:59:06;;;;;;;21.77;3.75;;;;;;;2.33;100.00;97566.16;5035438;28;20497;-71
2022/01/30 11:01:32;;;;;;;33.70;3.45;;;;;;;2.59;100.00;97558.84;5032673;28;20057;-71
2022/01/30 11:04:00;;;;;;;38.67;3.88;;;;;;;3.09;100.00;97560.22;5034627;28;20687;-72
2022/01/30 11:06:28;;;;;;;17.70;4.40;;;;;;;3.46;100.00;97548.91;5032366;28;20029;-72
2022/01/30 11:09:03;;;;;;;19.63;3.05;;;;;;;3.76;100.00;97552.47;5034342;28;20044;-72
2022/01/30 11:11:41;;;;;;;25.05;3.67;;;;;;;3.61;100.00;97548.97;5038862;28;20065;-71
2022/01/30 11:19:20;;;;;;;26.45;3.15;;;;;;;3.28;100.00;97558.97;5041255;28;20045;-73
2022/01/30 11:21:51;;;;;;;23.55;3.30;;;;;;;3.25;100.00;97559.31;5036440;28;20068;-71
2022/01/30 11:24:19;;;;;;;37.10;4.00;;;;;;;3.24;100.00;97557.66;5033176;28;20056;-73
2022/01/30 11:26:45;;;;;;;28.27;3.33;;;;;;;3.26;100.00;97563.59;4337774;28;10000533;-71
2022/01/30 11:29:13;;;;;;;19.17;2.50;;;;;;;3.21;100.00;97564.13;5033395;28;20041;-72
2022/01/30 11:31:38;;;;;;;30.33;3.17;;;;;;;2.97;100.00;97570.38;5048710;28;20044;-73
2022/01/30 11:34:05;;;;;;;20.02;2.25;;;;;;;2.93;100.00;97570.91;5036538;28;20053;-71
2022/01/30 11:36:38;;;;;;;14.32;2.80;;;;;;;2.91;100.00;97568.44;5028576;28;20037;-73
2022/01/30 11:39:05;;;;;;;10.93;2.92;;;;;;;2.88;100.00;97563.50;5039700;28;20040;-71
2022/01/30 11:41:34;;;;;;;33.25;3.80;;;;;;;2.81;100.00;97559.91;5036655;28;20144;-73
2022/01/30 11:44:18;;;;;;;22.80;2.72;;;;;;;2.80;100.00;97560.88;5031582;28;20084;-72
2022/01/30 11:47:04;;;;;;;12.35;2.80;;;;;;;2.79;100.00;97560.03;5032772;28;20040;-70
2022/01/30 11:49:48;;;;;;;27.70;3.53;;;;;;;2.83;100.00;97568.47;5022945;28;20415;-71
2022/01/30 11:52:16;;;;;;;32.80;4.07;;;;;;;2.79;100.00;97570.63;5034478;28;20459;-70
2022/01/30 11:54:45;;;;;;;24.15;3.60;;;;;;;2.86;100.00;97562.81;5033058;28;20048;-71
2022/01/30 11:57:22;;;;;;;21.38;3.17;;;;;;;2.95;100.00;97561.78;5035631;28;20896;-71
2022/01/30 11:59:49;;;;;;;10.77;2.47;;;;;;;2.82;100.00;97564.19;5032206;28;20497;-71
2022/01/30 12:02:33;;;;;;;9.70;1.58;;;;;;;2.89;100.00;97557.22;5033661;28;20053;-72
2022/01/30 12:05:04;;;;;;;19.00;3.40;;;;;;;3.02;100.00;97553.97;5035491;28;20041;-72
2022/01/30 12:07:45;;;;;;;21.95;3.88;;;;;;;3.22;100.00;97557.84;5031264;28;20065;-73
2022/01/30 12:10:19;;;;;;;10.13;2.10;;;;;;;3.41;100.00;97551.25;5031441;28;20088;-72
2022/01/30 12:13:03;;;;;;;17.17;2.05;;;;;;;3.56;100.00;97557.41;5034316;28;20633;-72
2022/01/30 12:15:46;;;;;;;10.63;2.25;;;;;;;3.63;100.00;97568.94;5045086;28;20080;-72
2022/01/30 12:18:46;;;;;;;9.05;3.05;;;;;;;3.98;100.00;97547.31;5030866;28;20466;-71
2022/01/30 12:21:16;;;;;;;9.50;2.60;;;;;;;3.60;100.00;97542.03;5049673;28;20132;-70
2022/01/30 12:23:43;;;;;;;15.90;2.03;;;;;;;3.42;100.00;97558.19;5036356;28;20045;-72
2022/01/30 12:26:14;;;;;;;35.10;4.15;;;;;;;3.47;100.00;97558.50;5036247;28;20108;-73
2022/01/30 12:28:53;;;;;;;18.90;2.97;;;;;;;3.80;100.00;97539.69;5035806;28;20048;-71
2022/01/30 12:31:25;;;;;;;18.33;2.90;;;;;;;3.84;100.00;97543.63;5031163;28;20060;-73
2022/01/30 12:34:03;;;;;;;17.02;3.03;;;;;;;3.70;100.00;97525.88;5054076;28;20156;-72
2022/01/30 12:36:30;;;;;;;32.92;4.53;;;;;;;3.66;100.00;97525.44;5029319;28;20048;-71
2022/01/30 12:39:21;;;;;;;14.25;3.05;;;;;;;3.68;100.00;97531.38;5032384;28;20041;-72
2022/01/30 12:41:48;;;;;;;17.70;3.28;;;;;;;3.58;100.00;97521.03;5034812;28;20029;-73
2022/01/30 12:44:16;;;;;;;12.25;2.22;;;;;;;3.56;100.00;97541.53;5033454;28;20502;-73
2022/01/30 12:46:51;;;;;;;24.38;2.95;;;;;;;3.46;100.00;97543.63;5030646;28;20119;-73
2022/01/30 12:49:22;;;;;;;33.72;3.70;;;;;;;3.49;100.00;97537.94;5031485;28;20048;-71
2022/01/30 12:51:55;;;;;;;28.58;4.50;;;;;;;3.50;100.00;97531.69;5034585;28;20080;-73